Time;durP1;ratioP1;P1;durP2;ratioP2;P2;SDS_P1;SDS_P2;PMS_P1;PMS_P2;Temp;Humidity;BMP_temperature;BMP_pressure;BME280_temperature;BME280_humidity;BME280_pressure;Samples;Min_cycle;Max_cycle;Signal;HPM_P1;HPM_P2
2021/06/13 01:06:04;;;;;;;;;3.00;3.00;;;;;21.97;50.71;98352.28;5386749;22;18905623;-90
2021/06/13 01:10:11;;;;;;;;;;;;;;;;;;;;;
2021/06/13 01:14:15;;;;;;;;;2.00;2.00;;;;;21.81;50.49;98342.38;5285323;23;10274470;-91
2021/06/13 01:27:40;;;;;;;;;;;;;;;;;;;;;
2021/06/13 01:30:35;;;;;;;;;2.00;2.00;;;;;21.83;50.40;98359.44;4615756;28;103496;-90
2021/06/13 01:33:43;;;;;;;;;;;;;;;;;;;;;
2021/06/13 01:36:39;;;;;;;;;2.00;2.00;;;;;21.87;50.61;98357.78;4610688;28;102438;-90
2021/06/13 01:39:35;;;;;;;;;2.00;2.00;;;;;21.85;50.55;98359.97;4613896;28;103229;-89
2021/06/13 01:42:50;;;;;;;;;;;;;;;;;;;;;
2021/06/13 01:46:07;;;;;;;;;3.00;3.00;;;;;21.73;50.66;98348.44;4569386;28;106481;-88
2021/06/13 01:49:44;;;;;;;;;;;;;;;;;;;;;
2021/06/13 01:52:51;;;;;;;;;2.00;1.67;;;;;21.80;50.09;98379.25;4569711;28;103893;-90
2021/06/13 01:59:32;;;;;;;;;3.33;3.33;;;;;21.72;49.90;98380.66;4539284;28;107445;-90
2021/06/13 02:02:45;;;;;;;;;3.67;3.00;;;;;21.72;49.87;98379.81;4602327;28;103205;-90
2021/06/13 02:05:39;;;;;;;;;2.00;2.00;;;;;21.77;49.96;98394.41;4523765;28;102652;-89
2021/06/13 02:08:44;;;;;;;;;3.00;3.00;;;;;21.64;49.69;98383.16;4579149;28;103084;-90
2021/06/13 02:11:53;;;;;;;;;3.67;2.67;;;;;21.59;49.61;98370.22;4567713;28;104591;-90
2021/06/13 02:15:01;;;;;;;;;1.67;1.67;;;;;21.71;49.74;98394.69;4581899;28;101835;-90
2021/06/13 02:18:36;;;;;;;;;2.33;2.33;;;;;21.53;49.59;98365.00;4502705;29;103076;-90
2021/06/13 02:21:58;;;;;;;;;2.00;2.00;;;;;21.57;49.61;98377.91;4593124;28;102938;-90
2021/06/13 02:25:02;;;;;;;;;2.00;1.67;;;;;21.56;49.75;98387.28;4561497;28;109444;-89
2021/06/13 02:28:14;;;;;;;;;2.00;2.00;;;;;21.54;49.49;98372.97;4580183;28;104194;-90
2021/06/13 02:31:07;;;;;;;;;2.67;1.67;;;;;21.55;49.27;98391.13;4611805;28;102947;-90
2021/06/13 02:33:58;;;;;;;;;2.00;2.00;;;;;21.52;49.46;98375.19;4683887;28;102914;-90
2021/06/13 02:37:06;;;;;;;;;2.00;2.00;;;;;21.54;49.24;98388.66;4634836;28;106302;-92
2021/06/13 02:40:13;;;;;;;;;2.33;2.33;;;;;21.54;49.38;98403.25;4647945;28;102582;-90
2021/06/13 02:42:58;;;;;;;;;2.00;2.00;;;;;21.57;48.69;98404.63;4682671;28;102592;-90
2021/06/13 02:45:52;;;;;;;;;1.00;1.00;;;;;21.47;49.40;98402.72;4628416;28;104232;-90
2021/06/13 02:48:49;;;;;;;;;2.33;2.00;;;;;21.46;48.66;98408.47;4664844;28;106291;-90
2021/06/13 02:51:46;;;;;;;;;1.00;1.00;;;;;21.44;49.05;98406.00;4675383;28;102628;-90
2021/06/13 02:54:51;;;;;;;;;1.67;1.67;;;;;21.48;49.02;98420.84;4642392;28;102070;-90
2021/06/13 02:57:54;;;;;;;;;1.67;1.00;;;;;21.50;48.96;98420.56;4680204;28;104221;-90
2021/06/13 03:00:40;;;;;;;;;1.67;1.67;;;;;21.47;48.90;98410.13;4693141;28;107413;-90
2021/06/13 03:03:29;;;;;;;;;1.00;1.00;;;;;21.39;48.85;98407.94;4828094;28;102747;-90
2021/06/13 03:06:21;;;;;;;;;2.00;1.00;;;;;21.34;48.80;98400.50;4825734;28;102861;-90
2021/06/13 03:09:08;;;;;;;;;2.00;2.00;;;;;21.37;48.44;98419.22;4683905;28;103542;-90
2021/06/13 03:11:55;;;;;;;;;0.00;0.00;;;;;21.38;48.97;98422.78;4708831;28;107271;-90
2021/06/13 03:14:36;;;;;;;;;2.00;2.00;;;;;21.39;48.80;98440.94;4724720;28;102001;-90
2021/06/13 03:17:23;;;;;;;;;1.00;1.00;;;;;21.30;48.49;98424.97;4787690;28;107074;-90
2021/06/13 03:20:14;;;;;;;;;1.00;1.00;;;;;21.29;48.87;98425.25;4667850;28;102085;-90
2021/06/13 03:22:56;;;;;;;;;2.00;2.00;;;;;21.38;48.67;98445.63;4740484;28;108081;-90
2021/06/13 03:25:37;;;;;;;;;1.00;1.00;;;;;21.27;48.91;98433.78;4692827;28;101747;-90
2021/06/13 03:28:23;;;;;;;;;1.67;1.00;;;;;21.34;48.83;98444.53;4740829;28;104614;-90
2021/06/13 03:31:09;;;;;;;;;1.67;1.67;;;;;21.38;48.66;98448.38;4708471;28;103087;-91
2021/06/13 03:33:53;;;;;;;;;1.67;1.67;;;;;21.36;48.63;98451.38;4694076;28;108628;-90
2021/06/13 03:36:37;;;;;;;;;1.00;1.00;;;;;21.29;48.29;98439.84;4718600;28;102865;-91
2021/06/13 03:39:05;;;;;;;;;3.00;2.00;;;;;21.32;48.50;98447.53;4738706;28;102388;-90
2021/06/13 03:41:46;;;;;;;;;2.33;2.33;;;;;21.27;48.71;98454.94;4821237;28;102528;-90
2021/06/13 03:44:27;;;;;;;;;2.00;2.00;;;;;21.30;48.62;98468.16;4813877;28;108065;-90
2021/06/13 03:47:11;;;;;;;;;1.67;1.67;;;;;21.26;48.47;98459.63;4801837;28;102793;-90
2021/06/13 03:49:52;;;;;;;;;1.67;1.67;;;;;21.16;48.78;98447.81;4809391;28;102170;-90
2021/06/13 03:52:34;;;;;;;;;1.00;1.00;;;;;21.21;48.54;98465.13;4759920;28;103151;-90
2021/06/13 03:55:18;;;;;;;;;1.00;1.00;;;;;21.28;48.40;98484.13;4843830;28;105448;-90
2021/06/13 03:57:59;;;;;;;;;2.00;2.00;;;;;21.23;48.69;98479.44;4790895;28;102141;-91
2021/06/13 04:00:40;;;;;;;;;1.67;1.67;;;;;21.27;48.31;98474.22;4843177;28;103081;-90
2021/06/13 04:03:21;;;;;;;;;2.00;1.33;;;;;21.24;48.78;98489.34;4866324;28;102862;-90
2021/06/13 04:06:03;;;;;;;;;1.00;1.00;;;;;21.16;48.59;98467.06;4777024;22;109293;-90
2021/06/13 04:08:48;;;;;;;;;1.00;1.00;;;;;21.24;48.77;98478.34;4919332;28;104810;-91
2021/06/13 04:11:29;;;;;;;;;1.00;1.00;;;;;21.15;48.78;98474.47;4880771;28;101988;-90
2021/06/13 04:14:13;;;;;;;;;2.00;1.00;;;;;21.14;48.39;98478.31;4830164;28;102377;-91
2021/06/13 04:16:56;;;;;;;;;1.67;1.67;;;;;21.19;48.84;98488.50;4836645;28;108138;-91
2021/06/13 04:19:37;;;;;;;;;1.00;1.00;;;;;21.14;48.42;98486.56;4843315;28;102486;-90
2021/06/13 04:22:19;;;;;;;;;3.00;2.00;;;;;21.18;48.53;98493.16;4905695;28;102758;-91
2021/06/13 04:24:53;;;;;;;;;2.67;2.67;;;;;21.11;48.56;98487.09;4845537;28;102716;-92
2021/06/13 04:27:35;;;;;;;;;1.00;1.00;;;;;21.14;48.44;98486.56;4770365;28;108409;-91
2021/06/13 04:30:16;;;;;;;;;1.00;1.00;;;;;21.10;48.54;98493.69;4852017;28;101371;-91
2021/06/13 04:32:57;;;;;;;;;2.00;2.00;;;;;21.12;48.81;98496.97;4805404;28;103090;-91
2021/06/13 04:35:40;;;;;;;;;2.00;2.00;;;;;21.16;48.86;98500.88;4883817;28;101456;-91
2021/06/13 04:38:21;;;;;;;;;2.00;1.00;;;;;21.14;48.77;98494.00;4889582;28;108210;-92
2021/06/13 04:41:06;;;;;;;;;1.67;1.67;;;;;21.13;48.53;98497.81;4732238;28;109580;-91
2021/06/13 04:43:47;;;;;;;;;1.67;1.67;;;;;21.06;48.96;98480.75;4849774;28;101331;-91
2021/06/13 04:46:28;;;;;;;;;1.67;1.67;;;;;21.15;48.50;98493.72;4887757;28;102410;-91
2021/06/13 04:49:09;;;;;;;;;1.00;1.00;;;;;21.16;48.08;98494.56;4832205;28;103730;-91
2021/06/13 04:51:51;;;;;;;;;2.00;2.00;;;;;21.17;49.03;98498.94;4900116;28;102986;-90
2021/06/13 04:54:50;;;;;;;;;1.00;1.00;;;;;21.10;48.64;98503.84;4765957;28;102408;-90
2021/06/13 04:57:52;;;;;;;;;1.00;1.00;;;;;21.14;48.39;98514.06;4899889;28;102335;-91
2021/06/13 05:00:33;;;;;;;;;0.67;0.67;;;;;21.12;48.03;98534.66;4836966;28;109104;-89
2021/06/13 05:03:14;;;;;;;;;2.00;2.00;;;;;21.04;48.59;98505.75;4898654;28;102539;-90
2021/06/13 05:05:55;;;;;;;;;1.67;1.67;;;;;21.02;48.64;98496.13;4855279;28;102225;-89
2021/06/13 05:08:36;;;;;;;;;1.00;1.00;;;;;21.18;48.93;98539.09;4874770;28;102353;-90
2021/06/13 05:11:03;;;;;;;;;1.00;1.00;;;;;21.10;48.79;98521.19;4919437;28;102658;-90
2021/06/13 05:13:30;;;;;;;;;1.00;1.00;;;;;21.10;48.87;98523.94;4883407;28;102070;-90
2021/06/13 05:16:11;;;;;;;;;0.33;0.33;;;;;21.05;48.44;98521.16;4906086;28;102172;-90
2021/06/13 05:18:52;;;;;;;;;3.00;3.00;;;;;21.07;48.69;98532.72;4866697;28;102129;-91
2021/06/13 05:21:32;;;;;;;;;2.00;2.00;;;;;21.06;48.75;98541.22;4870166;28;108337;-91
2021/06/13 05:24:13;;;;;;;;;1.67;1.67;;;;;21.03;49.11;98537.09;4914599;28;103256;-90
2021/06/13 05:26:54;;;;;;;;;2.00;1.00;;;;;21.05;49.10;98534.91;4900996;28;102365;-89
2021/06/13 05:29:35;;;;;;;;;2.00;1.67;;;;;21.08;48.97;98550.84;4866943;28;102414;-91
2021/06/13 05:32:16;;;;;;;;;2.00;2.00;;;;;21.14;48.74;98555.31;4892421;28;103955;-90
2021/06/13 05:34:57;;;;;;;;;2.00;2.00;;;;;21.04;49.21;98533.25;4829813;28;104051;-91
2021/06/13 05:37:38;;;;;;;;;1.67;1.67;;;;;21.11;48.88;98549.50;4891412;28;101753;-91
2021/06/13 05:40:19;;;;;;;;;1.00;1.00;;;;;21.08;49.39;98552.78;4863065;28;103190;-90
2021/06/13 05:42:48;;;;;;;;;2.00;2.00;;;;;21.13;49.29;98564.66;4897121;28;103074;-90
2021/06/13 05:45:30;;;;;;;;;1.67;1.67;;;;;21.03;49.20;98548.06;4834445;28;103009;-90
2021/06/13 05:47:58;;;;;;;;;2.00;2.00;;;;;21.09;49.33;98563.50;4888479;28;102367;-90
2021/06/13 05:50:39;;;;;;;;;2.00;2.00;;;;;21.14;49.23;98570.97;4852583;28;102527;-90
2021/06/13 05:53:20;;;;;;;;;2.00;2.00;;;;;21.16;49.01;98566.06;4862717;28;108173;-90
2021/06/13 05:56:01;;;;;;;;;1.67;1.67;;;;;21.08;49.46;98561.84;4778912;28;103403;-91
2021/06/13 05:58:42;;;;;;;;;2.00;2.00;;;;;21.13;48.88;98570.16;4874898;28;102311;-90
2021/06/13 06:01:23;;;;;;;;;1.67;1.67;;;;;21.21;48.94;98580.63;4901079;28;101583;-90
2021/06/13 06:04:04;;;;;;;;;2.33;2.33;;;;;21.15;49.05;98581.72;4843102;28;108165;-90
2021/06/13 06:06:45;;;;;;;;;2.33;2.33;;;;;21.10;48.74;98581.66;4906114;28;101783;-90
2021/06/13 06:09:12;;;;;;;;;1.00;1.00;;;;;21.09;48.60;98577.25;4898273;28;102441;-90
2021/06/13 06:11:53;;;;;;;;;1.00;1.00;;;;;21.04;49.09;98577.22;4873448;28;107560;-89
2021/06/13 06:14:34;;;;;;;;;1.67;1.67;;;;;21.05;48.95;98578.91;4867460;28;103729;-90
2021/06/13 06:17:15;;;;;;;;;2.00;2.00;;;;;21.10;49.16;98586.34;4909995;28;103896;-91
2021/06/13 06:19:56;;;;;;;;;2.00;2.00;;;;;21.04;49.08;98588.22;4873589;28;103040;-91
2021/06/13 06:22:37;;;;;;;;;1.00;1.00;;;;;21.10;49.25;98598.16;4889265;28;101786;-91
2021/06/13 06:25:19;;;;;;;;;2.00;1.33;;;;;21.16;49.12;98616.38;4857056;28;104332;-91
2021/06/13 06:27:46;;;;;;;;;2.33;2.00;;;;;21.13;49.02;98625.16;4864841;28;104001;-91
2021/06/13 06:30:27;;;;;;;;;2.00;2.00;;;;;21.13;48.63;98621.56;4852477;28;101748;-90
2021/06/13 06:33:08;;;;;;;;;2.00;1.00;;;;;21.10;48.91;98625.66;4851784;28;102364;-90
2021/06/13 06:35:36;;;;;;;;;1.67;1.33;;;;;21.19;48.99;98639.75;4888048;28;104595;-90
2021/06/13 06:38:17;;;;;;;;;2.00;2.00;;;;;21.07;49.00;98615.22;4877061;28;102100;-91
2021/06/13 06:41:00;;;;;;;;;1.67;1.67;;;;;21.10;48.96;98636.66;4860837;28;102289;-92
2021/06/13 06:43:41;;;;;;;;;2.00;2.00;;;;;21.11;48.75;98624.56;4908133;28;102280;-91
2021/06/13 06:46:22;;;;;;;;;2.00;2.00;;;;;21.18;49.30;98627.91;4860146;28;110217;-91
2021/06/13 06:49:04;;;;;;;;;1.67;1.67;;;;;21.19;48.81;98635.09;4773617;28;102718;-91
2021/06/13 06:51:45;;;;;;;;;2.00;2.00;;;;;21.07;49.07;98612.47;4848442;28;101954;-91
2021/06/13 06:54:26;;;;;;;;;2.00;2.00;;;;;21.17;48.82;98631.75;4887730;28;103779;-90
2021/06/13 06:57:10;;;;;;;;;2.67;2.67;;;;;21.24;48.94;98645.28;4916739;28;102562;-91
2021/06/13 06:59:52;;;;;;;;;1.67;1.67;;;;;21.19;48.40;98639.75;4887794;28;103938;-91
2021/06/13 07:02:34;;;;;;;;;2.00;2.00;;;;;21.09;49.01;98618.50;4912296;28;102390;-91
2021/06/13 07:05:14;;;;;;;;;2.67;2.00;;;;;21.16;48.99;98640.28;4920462;28;104724;-90
2021/06/13 07:07:55;;;;;;;;;1.67;1.67;;;;;21.14;49.16;98629.56;4886528;28;108094;-90
2021/06/13 07:10:36;;;;;;;;;2.00;2.00;;;;;21.10;48.89;98631.16;4845217;28;102044;-91
2021/06/13 07:13:20;;;;;;;;;3.00;3.00;;;;;21.11;48.76;98638.31;4951596;22;103110;-91
2021/06/13 07:16:02;;;;;;;;;2.00;2.00;;;;;21.18;48.67;98655.41;4959012;28;102370;-92
2021/06/13 07:18:44;;;;;;;;;1.33;1.33;;;;;21.10;48.36;98631.16;4903190;28;103693;-92
2021/06/13 07:21:25;;;;;;;;;2.00;2.00;;;;;21.12;48.75;98634.44;4955888;28;107461;-92
2021/06/13 07:24:06;;;;;;;;;2.00;2.00;;;;;21.13;49.01;98638.06;4877781;28;102048;-93
2021/06/13 07:26:48;;;;;;;;;2.33;2.33;;;;;21.10;49.02;98636.66;4943245;28;103605;-93
2021/06/13 07:29:32;;;;;;;;;1.00;1.00;;;;;21.16;48.64;98643.03;4858557;28;108846;-92
2021/06/13 07:32:22;;;;;;;;;2.00;1.00;;;;;21.13;48.83;98641.66;4753402;28;102317;-92
2021/06/13 07:35:12;;;;;;;;;2.00;2.00;;;;;21.21;48.91;98663.13;4759401;28;103197;-93
2021/06/13 07:38:15;;;;;;;;;3.00;3.00;;;;;21.17;48.83;98659.25;4613983;28;102565;-92
2021/06/13 07:41:29;;;;;;;;;2.00;2.00;;;;;21.25;48.61;98666.19;4781939;28;108128;-93
2021/06/13 07:44:31;;;;;;;;;2.33;2.33;;;;;21.17;48.31;98651.00;4614777;28;102562;-91
2021/06/13 07:47:12;;;;;;;;;2.00;2.00;;;;;21.18;48.79;98660.91;4793808;28;102046;-92
2021/06/13 07:49:54;;;;;;;;;1.67;1.67;;;;;21.27;48.81;98675.81;4832426;28;103667;-92
2021/06/13 07:52:50;;;;;;;;;3.00;3.00;;;;;21.22;48.52;98664.78;4668689;28;106774;-93
2021/06/13 08:02:35;;;;;;;;;2.00;1.67;;;;;21.29;48.45;98687.38;4644508;28;2534169;-92
2021/06/13 08:05:28;;;;;;;;;2.00;1.67;;;;;21.13;48.29;98651.81;4937500;28;103767;-91
2021/06/13 08:08:10;;;;;;;;;2.33;2.33;;;;;21.19;48.46;98662.59;4889252;28;102048;-89
2021/06/13 08:10:51;;;;;;;;;2.33;2.33;;;;;21.20;48.24;98677.16;4941341;28;104702;-90
2021/06/13 08:13:32;;;;;;;;;2.00;2.00;;;;;21.18;48.09;98668.34;4922465;28;102694;-86
2021/06/13 08:16:16;;;;;;;;;4.00;3.00;;;;;21.18;47.75;98671.91;4965421;22;102272;-90
2021/06/13 08:18:57;;;;;;;;;1.33;1.00;;;;;21.28;48.10;98691.22;4935322;28;102593;-90
2021/06/13 08:21:38;;;;;;;;;3.00;2.00;;;;;21.26;48.14;98693.41;4944317;28;102639;-91
2021/06/13 08:24:19;;;;;;;;;2.33;2.33;;;;;21.10;47.20;98688.91;4940937;28;103747;-90
2021/06/13 08:26:59;;;;;;;;;2.00;2.00;;;;;21.11;46.90;98693.31;4992807;28;109099;-90
2021/06/13 08:29:42;;;;;;;;;2.67;2.00;;;;;21.20;46.75;98715.66;4987544;28;101681;-90
2021/06/13 08:32:09;;;;;;;;;0.67;0.67;;;;;21.14;47.47;98692.81;4988687;28;103493;-91
2021/06/13 08:34:50;;;;;;;;;1.33;1.33;;;;;21.11;46.34;98696.06;4988282;28;102166;-90
2021/06/13 08:37:32;;;;;;;;;1.00;1.00;;;;;21.11;46.71;98698.81;4984932;28;108610;-90
2021/06/13 08:40:03;;;;;;;;;0.00;0.00;;;;;21.19;46.58;98706.59;4988301;27;101966;-90
2021/06/13 08:42:44;;;;;;;;;1.67;1.67;;;;;21.26;46.39;98717.34;4976521;28;102311;-91
2021/06/13 08:45:13;;;;;;;;;1.33;1.00;;;;;21.21;46.06;98707.13;5214379;22;101528;-90
2021/06/13 08:47:54;;;;;;;;;2.00;1.33;;;;;21.14;45.97;98698.31;5032090;22;108305;-91
2021/06/13 08:50:22;;;;;;;;;1.33;1.33;;;;;21.11;46.49;98693.31;4995795;27;101372;-91
2021/06/13 08:53:06;;;;;;;;;0.67;0.67;;;;;21.17;46.03;98703.25;4894285;22;101426;-91
2021/06/13 08:55:47;;;;;;;;;1.67;1.67;;;;;21.11;46.55;98693.31;4915072;22;103764;-90
2021/06/13 08:58:16;;;;;;;;;2.00;1.00;;;;;21.21;46.21;98707.13;4974305;28;102121;-89
2021/06/13 09:00:44;;;;;;;;;2.00;2.00;;;;;21.21;46.09;98698.88;4956127;28;104145;-90
2021/06/13 09:03:25;;;;;;;;;2.00;2.00;;;;;21.13;45.55;98696.63;4945835;28;102707;-91
2021/06/13 09:06:06;;;;;;;;;1.00;1.00;;;;;21.16;45.74;98698.88;4851875;23;102201;-91
2021/06/13 09:08:41;;;;;;;;;1.00;1.00;;;;;21.20;45.95;98700.00;4874353;28;102376;-91
2021/06/13 09:11:28;;;;;;;;;1.00;1.00;;;;;21.24;45.51;98709.38;5002629;23;102196;-91
2021/06/13 09:14:10;;;;;;;;;1.67;1.00;;;;;21.28;45.22;98718.72;4872733;28;103016;-91
2021/06/13 09:16:52;;;;;;;;;1.00;1.00;;;;;21.22;44.92;98719.78;4812964;28;101374;-90
2021/06/13 09:19:21;;;;;;;;;2.00;1.33;;;;;21.24;45.69;98725.88;4876876;28;101834;-91
2021/06/13 09:22:10;;;;;;;;;3.00;2.33;;;;;21.34;45.63;98747.91;4900323;23;103118;-90
2021/06/13 09:24:37;;;;;;;;;1.67;1.67;;;;;21.24;45.90;98725.88;4970186;28;101429;-90
2021/06/13 09:27:09;;;;;;;;;4.00;4.00;;;;;21.20;45.45;98721.16;4972009;28;102505;-90
2021/06/13 09:29:50;;;;;;;;;7.33;6.00;;;;;21.25;45.23;98730.25;4964942;28;102156;-90
2021/06/13 09:32:18;;;;;;;;;8.00;6.00;;;;;21.21;44.83;98734.63;4947729;28;102270;-91
2021/06/13 09:35:22;;;;;;;;;11.00;10.67;;;;;21.27;44.85;98741.81;4890825;28;102273;-89
2021/06/13 09:38:08;;;;;;;;;10.33;8.67;;;;;21.27;44.40;98746.50;4937278;28;102354;-91
2021/06/13 09:40:53;;;;;;;;;11.00;10.00;;;;;21.29;44.51;98752.56;4880387;28;104297;-90
2021/06/13 09:43:46;;;;;;;;;7.67;7.00;;;;;21.23;44.58;98732.47;4881838;28;103403;-90
2021/06/13 10:01:59;;;;;;;;;17.33;15.33;;;;;21.20;46.88;98743.16;5363792;23;103787;-91
2021/06/13 10:04:37;;;;;;;;;17.67;15.67;;;;;21.26;47.02;98756.66;4834718;28;103539;-91
2021/06/13 10:10:51;;;;;;;;;18.67;16.00;;;;;21.29;46.83;98766.31;5457553;23;103060;31
2021/06/13 10:19:16;;;;;;;;;21.00;18.75;;;;;21.25;47.62;98760.50;5642137;23;103508;-93
2021/06/13 10:22:01;;;;;;;;;22.33;21.00;;;;;21.34;47.89;98791.91;4864823;23;103135;-93
2021/06/13 10:24:43;;;;;;;;;20.67;18.67;;;;;21.21;47.96;98762.13;5241428;22;102261;-92
2021/06/13 10:27:25;;;;;;;;;18.00;17.67;;;;;21.24;48.27;98774.53;4893215;28;102397;-91
2021/06/13 10:30:07;;;;;;;;;20.33;18.33;;;;;21.23;48.38;98778.38;4884773;28;109024;-92
2021/06/13 10:32:48;;;;;;;;;20.00;17.67;;;;;21.20;48.14;98779.75;4868716;28;102994;-91
2021/06/13 10:35:38;;;;;;;;;17.00;15.00;;;;;21.25;47.97;98790.75;4879111;28;102032;-94
2021/06/13 10:38:19;;;;;;;;;19.00;17.33;;;;;21.25;48.86;98784.47;5116729;23;102625;-93
2021/06/13 10:41:12;;;;;;;;;21.50;20.00;;;;;21.22;49.30;98788.53;4828798;23;108968;31
2021/06/13 10:44:07;;;;;;;;;22.67;21.33;;;;;21.26;48.13;98786.91;4758031;23;102020;-92
2021/06/13 10:46:52;;;;;;;;;18.33;18.00;;;;;21.29;49.70;98782.84;5191536;23;102166;-93
2021/06/13 10:49:37;;;;;;;;;17.67;17.00;;;;;21.30;50.24;98796.28;4920530;28;103221;-93
2021/06/13 10:52:22;;;;;;;;;19.33;17.33;;;;;21.21;50.39;98780.56;4930783;23;102307;-93
2021/06/13 10:55:05;;;;;;;;;16.67;16.67;;;;;21.23;48.53;98798.47;4912793;28;101988;-91
2021/06/13 10:57:46;;;;;;;;;17.67;17.00;;;;;21.25;49.38;98790.75;5010029;22;102467;-92
2021/06/13 11:00:20;;;;;;;;;16.00;15.00;;;;;21.36;48.53;98820.00;4924553;28;102044;-91
2021/06/13 11:02:59;;;;;;;;;14.00;13.33;;;;;21.26;49.37;98806.19;4940461;22;102669;-92
2021/06/13 11:05:46;;;;;;;;;18.00;15.33;;;;;21.25;48.95;98806.47;4853397;28;104413;-92
2021/06/13 11:10:50;;;;;;;;;13.33;12.67;;;;;21.27;48.16;98796.00;4954399;22;104490;-90
2021/06/13 11:13:22;;;;;;;;;12.00;11.00;;;;;21.30;47.95;98790.78;4908442;28;104829;-92
2021/06/13 11:15:50;;;;;;;;;11.00;10.33;;;;;21.17;47.54;98791.25;4998139;23;102062;-92
2021/06/13 11:18:20;;;;;;;;;11.33;10.00;;;;;21.24;48.53;98805.63;4890711;28;101934;-91
2021/06/13 11:21:10;;;;;;;;;9.00;8.00;;;;;21.30;48.78;98812.81;4907068;28;104388;-87
2021/06/13 11:23:40;;;;;;;;;11.33;10.33;;;;;21.24;48.45;98807.56;4861128;28;103463;-92
2021/06/13 11:26:32;;;;;;;;;10.67;9.33;;;;;21.26;48.87;98819.09;4876308;28;101677;-91
2021/06/13 11:29:13;;;;;;;;;10.67;10.00;;;;;21.19;48.41;98793.75;4883564;23;101799;-91
2021/06/13 11:31:54;;;;;;;;;7.67;7.33;;;;;21.22;48.38;98810.56;4935734;23;101469;-92
2021/06/13 11:34:22;;;;;;;;;6.67;6.67;;;;;21.21;48.95;98808.06;4920380;28;104530;-91
2021/06/13 11:37:22;;;;;;;;;7.67;7.00;;;;;21.22;48.01;98807.81;4896910;28;101877;-91
2021/06/13 11:40:04;;;;;;;;;8.67;7.00;;;;;21.19;47.97;98800.09;4910927;28;101757;-91
2021/06/13 11:43:09;;;;;;;;;6.67;6.00;;;;;20.49;40.08;98827.75;4899823;28;102461;-89
2021/06/13 11:45:37;;;;;;;;;2.00;2.00;;;;;19.84;41.17;98833.31;4869005;28;107767;-89
2021/06/13 11:48:19;;;;;;;;;3.00;3.00;;;;;19.49;42.62;98826.28;4904937;28;101774;-90
2021/06/13 11:51:09;;;;;;;;;3.00;3.00;;;;;19.36;44.06;98834.00;4917668;28;101599;-89
2021/06/13 11:53:49;;;;;;;;;4.00;3.00;;;;;19.18;44.61;98841.41;4916655;28;101505;-89
2021/06/13 11:56:33;;;;;;;;;5.00;4.00;;;;;18.93;44.16;98807.28;5002661;23;108391;-90
2021/06/13 11:59:10;;;;;;;;;3.33;3.33;;;;;18.94;43.89;98841.84;4930465;28;101487;-89
2021/06/13 12:01:38;;;;;;;;;4.00;4.00;;;;;18.70;44.72;98822.81;4872270;28;103647;-90
2021/06/13 12:04:20;;;;;;;;;2.00;2.00;;;;;18.71;44.37;98819.00;4900444;28;101774;-93
2021/06/13 12:12:30;;;;;;;;;1.00;1.00;;;;;19.60;44.31;98836.28;5216053;22;102210;-93
2021/06/13 12:15:15;;;;;;;;;1.00;1.00;;;;;19.74;44.68;98835.91;5024774;23;103364;-93
2021/06/13 12:17:56;;;;;;;;;2.00;1.00;;;;;19.80;45.27;98810.22;5223184;23;103206;-93
2021/06/13 12:23:38;;;;;;;;;1.00;1.00;;;;;20.06;46.90;98842.38;4949530;22;104057;-93
2021/06/13 12:29:25;;;;;;;;;1.33;1.00;;;;;20.19;47.50;98839.22;5276902;23;103116;-93
2021/06/13 12:32:14;;;;;;;;;2.00;2.00;;;;;20.18;47.13;98826.56;5491623;23;102306;-93
2021/06/13 12:34:43;;;;;;;;;3.00;2.67;;;;;20.23;47.76;98832.13;5454817;23;102179;-93
2021/06/13 12:37:24;;;;;;;;;2.00;2.00;;;;;20.23;49.17;98834.88;4970801;23;102745;-94
2021/06/13 12:40:11;;;;;;;;;2.00;2.00;;;;;20.37;48.95;98847.16;4881234;28;108040;-93
2021/06/13 12:43:16;;;;;;;;;2.33;2.00;;;;;20.41;49.41;98863.94;4721016;28;104506;-94
2021/06/13 12:46:03;;;;;;;;;3.00;2.00;;;;;20.41;49.87;98851.03;4795187;28;102474;-93
2021/06/13 12:48:45;;;;;;;;;3.00;2.33;;;;;20.42;49.54;98863.69;4722262;28;103290;-95
2021/06/13 12:51:33;;;;;;;;;2.33;2.00;;;;;20.49;49.57;98863.47;4784446;28;102927;-94
2021/06/13 12:54:26;;;;;;;;;3.00;2.67;;;;;20.46;50.46;98861.25;4662674;28;103976;-94
2021/06/13 12:58:21;;;;;;;;;3.67;3.00;;;;;20.44;50.29;98842.28;4799540;28;101580;-95
2021/06/13 13:01:20;;;;;;;;;4.33;3.00;;;;;20.54;50.58;98851.72;4764143;23;102088;-94
2021/06/13 13:07:41;;;;;;;;;3.00;3.00;;;;;20.58;50.52;98850.13;5348998;22;102672;-94
2021/06/13 13:10:23;;;;;;;;;4.00;3.33;;;;;20.62;50.01;98873.25;5118147;22;102630;-94
2021/06/13 13:13:10;;;;;;;;;3.00;3.00;;;;;20.59;50.19;98849.00;5244843;23;104307;-91
2021/06/13 13:15:43;;;;;;;;;3.00;2.67;;;;;20.65;50.87;98864.47;4894647;28;102445;-93
2021/06/13 13:18:24;;;;;;;;;3.67;3.67;;;;;20.70;50.53;98859.03;4924652;28;103202;-93
2021/06/13 13:21:06;;;;;;;;;3.00;3.00;;;;;20.70;50.70;98861.78;4875717;28;101494;-92
2021/06/13 13:23:47;;;;;;;;;4.00;4.00;;;;;20.65;51.40;98843.31;5003672;23;102550;-93
2021/06/13 13:29:11;;;;;;;;;4.00;4.00;;;;;20.76;51.52;98866.22;4883379;28;102284;-94
2021/06/13 13:31:39;;;;;;;;;4.00;3.67;;;;;20.76;51.35;98857.97;4901454;28;101918;-93
2021/06/13 13:34:32;;;;;;;;;4.00;4.00;;;;;20.73;51.79;98845.59;4917954;28;102182;-93
2021/06/13 13:37:14;;;;;;;;;3.00;3.00;;;;;20.79;51.73;98860.22;4928644;28;108109;-94
2021/06/13 13:42:37;;;;;;;;;4.00;4.00;;;;;20.87;51.65;98871.56;5091684;23;102198;-93
2021/06/13 13:45:29;;;;;;;;;4.50;4.00;;;;;20.90;51.41;98861.94;5283368;23;104712;31
2021/06/13 13:48:14;;;;;;;;;3.00;3.00;;;;;20.92;52.04;98870.78;5055179;23;109459;-92
2021/06/13 13:51:00;;;;;;;;;4.00;3.33;;;;;21.02;52.09;98876.38;4872881;28;104296;-92
2021/06/13 13:56:21;;;;;;;;;3.00;3.00;;;;;21.01;52.13;98868.38;5013346;22;102675;-94
2021/06/13 13:59:02;;;;;;;;;3.33;3.00;;;;;21.03;52.13;98866.22;4905119;28;108414;-93
2021/06/13 14:01:43;;;;;;;;;4.33;3.00;;;;;21.05;51.79;98870.34;4864602;28;101654;-92
2021/06/13 14:04:24;;;;;;;;;4.00;4.00;;;;;20.97;51.70;98848.84;4885531;28;101390;-92
2021/06/13 14:07:06;;;;;;;;;5.00;4.00;;;;;21.03;52.19;98864.25;4992319;23;103919;-90
2021/06/13 14:09:47;;;;;;;;;4.67;3.67;;;;;21.07;52.27;98873.69;4829420;28;109688;-93
2021/06/13 14:12:28;;;;;;;;;3.00;3.00;;;;;20.99;52.02;98849.38;4896505;28;101408;-93
2021/06/13 14:15:12;;;;;;;;;4.33;3.33;;;;;21.05;52.29;98842.84;4898946;28;101973;-93
2021/06/13 14:17:53;;;;;;;;;3.67;3.67;;;;;21.06;51.83;98858.25;4926161;28;101800;-93
2021/06/13 14:20:34;;;;;;;;;4.00;4.00;;;;;21.13;51.82;98855.31;4916563;28;108245;-93
2021/06/13 14:23:15;;;;;;;;;2.67;2.67;;;;;21.16;52.02;98865.81;4826704;28;101670;-92
2021/06/13 14:25:57;;;;;;;;;3.67;3.00;;;;;21.16;51.68;98852.06;4883172;28;101777;-93
2021/06/13 14:28:38;;;;;;;;;3.00;3.00;;;;;21.14;52.04;98854.22;4920291;28;102592;-93
2021/06/13 14:31:20;;;;;;;;;4.00;4.00;;;;;21.14;52.23;98840.47;4906569;28;103636;-92
2021/06/13 14:34:02;;;;;;;;;3.00;3.00;;;;;21.22;51.91;98859.22;4893121;28;102610;-93
2021/06/13 14:36:44;;;;;;;;;3.00;3.00;;;;;21.23;51.94;98860.88;4883660;28;101298;-93
2021/06/13 14:39:26;;;;;;;;;3.00;3.00;;;;;21.09;52.48;98841.22;4905822;28;101824;-93
2021/06/13 14:44:42;;;;;;;;;3.67;3.00;;;;;21.10;52.25;98842.06;5012026;23;103204;-92
2021/06/13 14:47:11;;;;;;;;;3.00;3.00;;;;;21.14;52.58;98841.31;4904398;28;102157;-93
2021/06/13 14:49:52;;;;;;;;;3.00;3.00;;;;;21.13;52.30;98845.13;4885088;28;102470;-92
2021/06/13 14:52:33;;;;;;;;;3.33;3.00;;;;;21.17;52.64;98842.69;4910451;28;108064;-92
2021/06/13 14:55:14;;;;;;;;;3.00;3.00;;;;;21.16;52.67;98833.63;4886660;28;101955;-93
2021/06/13 14:57:55;;;;;;;;;2.33;2.00;;;;;21.22;52.69;98843.56;4863241;28;105304;-93
2021/06/13 15:00:37;;;;;;;;;0.67;0.67;;;;;21.22;52.34;98843.56;4890140;28;104198;-92
2021/06/13 15:03:19;;;;;;;;;3.00;2.67;;;;;21.22;51.73;98848.22;4843598;28;103787;-92
2021/06/13 15:06:00;;;;;;;;;3.00;3.00;;;;;21.29;51.18;98852.44;4889879;28;101908;-93
2021/06/13 15:08:42;;;;;;;;;3.33;3.00;;;;;21.22;51.54;98846.31;4904637;28;103842;-93
2021/06/13 15:11:27;;;;;;;;;3.00;3.00;;;;;21.23;51.09;98847.97;4936310;23;102762;-91